Time;durP1;ratioP1;P1;durP2;ratioP2;P2;SDS_P1;SDS_P2;PMS_P1;PMS_P2;Temp;Humidity;BMP_temperature;BMP_pressure;BME280_temperature;BME280_humidity;BME280_pressure;Samples;Min_cycle;Max_cycle;Signal;HPM_P1;HPM_P2
2023/07/30 00:02:00;;;;;;;4.43;2.25;;;;;;;-145.69;85.83;52155.25;5076950;28;20202;-85
2023/07/30 00:04:27;;;;;;;2.63;1.92;;;;;;;-145.69;85.88;52131.50;5075953;28;20199;-84
2023/07/30 00:06:53;;;;;;;3.90;2.50;;;;;;;-145.69;85.32;52167.13;5078452;28;20203;-84
2023/07/30 00:09:20;;;;;;;3.25;2.22;;;;;;;-145.69;85.37;52159.22;5076197;28;20207;-85
2023/07/30 00:11:46;;;;;;;4.93;2.55;;;;;;;-145.69;84.52;52131.50;5076134;28;20653;-85
2023/07/30 00:14:14;;;;;;;4.28;2.38;;;;;;;-145.69;84.35;52139.41;5077719;28;20299;-84
2023/07/30 00:16:41;;;;;;;3.78;2.40;;;;;;;-145.69;84.35;52141.41;5077606;28;20222;-85
2023/07/30 00:19:07;;;;;;;3.20;2.05;;;;;;;-145.69;84.01;52153.28;5075185;28;20652;-85
2023/07/30 00:21:33;;;;;;;2.58;1.98;;;;;;;-145.69;83.53;52155.25;5075145;28;20199;-85
2023/07/30 00:24:00;;;;;;;2.85;1.85;;;;;;;-145.69;83.73;52131.50;5080566;28;20206;-85
2023/07/30 00:26:28;;;;;;;3.05;1.77;;;;;;;-145.69;83.77;52129.50;5089444;28;20198;-85
2023/07/30 00:28:55;;;;;;;4.43;2.00;;;;;;;-145.69;83.07;52159.22;5101229;28;20251;-84
2023/07/30 00:31:22;;;;;;;3.85;1.77;;;;;;;-145.69;83.34;52147.34;5096822;28;20202;-85
2023/07/30 00:33:49;;;;;;;3.78;1.75;;;;;;;-145.69;83.94;52119.63;5099039;28;20665;-85
2023/07/30 00:36:16;;;;;;;3.28;2.50;;;;;;;-145.69;84.68;52123.56;5096923;28;20561;-85
2023/07/30 00:38:42;;;;;;;2.97;2.33;;;;;;;-145.69;84.70;52149.31;5095705;28;20308;-85
2023/07/30 00:41:09;;;;;;;3.53;2.35;;;;;;;-145.69;87.27;52175.06;5094176;28;20240;-84
2023/07/30 00:43:35;;;;;;;3.63;1.88;;;;;;;-145.69;86.60;52115.66;5094399;28;20206;-86
2023/07/30 00:46:02;;;;;;;6.78;3.17;;;;;;;-145.69;87.02;52153.28;5094514;28;20198;-85
2023/07/30 00:48:30;;;;;;;3.08;2.15;;;;;;;-145.69;86.84;52131.50;5094042;28;20201;-85
2023/07/30 00:50:58;;;;;;;3.33;2.55;;;;;;;-145.69;86.04;52175.06;5096678;28;20194;-85
2023/07/30 00:53:26;;;;;;;3.85;2.50;;;;;;;-145.69;85.66;52113.66;5103881;28;20206;-85
2023/07/30 00:55:56;;;;;;;4.32;2.60;;;;;;;-145.69;87.56;52175.06;5096524;28;20436;-86
2023/07/30 00:58:24;;;;;;;2.30;1.98;;;;;;;-145.69;86.44;52159.22;5093606;28;20202;-85
2023/07/30 01:00:52;;;;;;;7.20;2.67;;;;;;;-145.69;86.97;52165.16;5096247;28;20230;-84
2023/07/30 01:03:19;;;;;;;2.33;1.90;;;;;;;-145.69;86.58;52147.34;5086953;28;20217;-85
2023/07/30 01:05:47;;;;;;;3.15;2.08;;;;;;;-145.69;86.60;52155.25;5102188;28;20194;-85
2023/07/30 01:08:13;;;;;;;2.95;2.28;;;;;;;-145.69;86.87;52157.25;5098498;28;20209;-85
2023/07/30 01:10:41;;;;;;;2.58;1.98;;;;;;;-145.69;86.84;52141.41;5101219;28;20217;-84
2023/07/30 01:13:09;;;;;;;8.00;2.20;;;;;;;-145.69;86.64;52131.50;5095933;28;20201;-84
2023/07/30 01:15:37;;;;;;;3.20;2.33;;;;;;;-145.69;86.82;52147.34;5093694;28;20233;-85
2023/07/30 01:18:03;;;;;;;3.33;2.40;;;;;;;-145.69;85.83;52135.47;5093873;28;20205;-85
2023/07/30 01:20:30;;;;;;;2.65;1.83;;;;;;;-145.69;84.52;52137.44;5098453;28;20230;-85
2023/07/30 01:22:59;;;;;;;4.95;2.20;;;;;;;-145.69;84.60;52115.66;5096529;28;20194;-85
2023/07/30 01:25:29;;;;;;;3.13;2.00;;;;;;;-145.69;85.89;52141.41;5097148;28;20285;-84
2023/07/30 01:27:59;;;;;;;3.60;2.17;;;;;;;-145.69;85.36;52123.56;5095429;28;20190;-83
2023/07/30 01:30:28;;;;;;;3.58;2.15;;;;;;;-145.69;84.66;52151.28;5095203;28;20212;-84
2023/07/30 01:32:56;;;;;;;2.78;2.28;;;;;;;-145.69;83.07;52115.66;5095629;28;20691;-85
2023/07/30 01:35:28;;;;;;;3.42;2.00;;;;;;;-145.69;82.06;52125.56;5096023;28;20206;-84
2023/07/30 01:37:55;;;;;;;3.15;1.98;;;;;;;-145.69;81.91;52141.41;5099377;28;20289;-84
2023/07/30 01:40:22;;;;;;;12.13;1.95;;;;;;;-145.69;81.87;52159.22;5099508;28;20222;-84
2023/07/30 01:42:50;;;;;;;4.40;1.60;;;;;;;-145.69;82.00;52129.50;5097756;28;20205;-84
2023/07/30 01:45:16;;;;;;;3.05;1.98;;;;;;;-145.69;81.74;52119.63;5094595;28;20648;-85
2023/07/30 01:47:43;;;;;;;3.55;2.10;;;;;;;-145.69;82.33;52143.38;5095408;28;20233;-85
2023/07/30 01:50:10;;;;;;;3.13;1.83;;;;;;;-145.69;82.58;52157.25;5093960;28;20206;-85
2023/07/30 01:52:37;;;;;;;3.00;1.90;;;;;;;-145.69;82.40;52125.56;5097217;28;20201;-85
2023/07/30 01:55:04;;;;;;;2.53;1.65;;;;;;;-145.69;83.19;52161.19;5099407;28;20200;-85
2023/07/30 01:57:32;;;;;;;2.70;1.80;;;;;;;-145.69;82.58;52139.41;5102569;28;20205;-85
2023/07/30 01:59:59;;;;;;;4.05;2.10;;;;;;;-145.69;83.40;52147.34;5096232;28;20217;-85
2023/07/30 02:02:25;;;;;;;3.33;1.90;;;;;;;-145.69;83.20;52167.13;5095265;28;20596;-85
2023/07/30 02:04:52;;;;;;;2.33;1.80;;;;;;;-145.69;83.46;52157.25;5100381;28;20233;-85
2023/07/30 02:07:18;;;;;;;1.75;1.60;;;;;;;-145.69;83.71;52157.25;5094346;28;20210;-85
2023/07/30 02:09:45;;;;;;;3.30;2.13;;;;;;;-145.69;84.55;52131.50;5094827;28;20652;-84
2023/07/30 02:12:12;;;;;;;4.03;1.75;;;;;;;-145.69;85.01;52155.25;5095338;28;20271;-84
2023/07/30 02:14:39;;;;;;;4.13;2.08;;;;;;;-145.69;85.50;52167.13;5093567;28;20230;-84
2023/07/30 02:17:06;;;;;;;3.03;1.65;;;;;;;-145.69;84.94;52145.34;5079402;28;20564;-85
2023/07/30 02:19:33;;;;;;;4.65;2.20;;;;;;;-145.69;84.14;52167.13;5073846;28;20214;-85
2023/07/30 02:21:59;;;;;;;3.10;2.20;;;;;;;-145.69;84.15;52155.25;5086027;28;20190;-85
2023/07/30 02:24:26;;;;;;;2.80;2.10;;;;;;;-145.69;84.02;52163.19;5099872;28;20261;-85
2023/07/30 02:26:52;;;;;;;2.65;2.00;;;;;;;-145.69;82.38;52141.41;5100962;28;20736;-85
2023/07/30 02:29:19;;;;;;;4.45;2.15;;;;;;;-145.69;82.73;52157.25;5107592;28;20190;-84
2023/07/30 02:31:47;;;;;;;2.97;1.80;;;;;;;-145.69;84.53;52155.25;5100155;28;20201;-85
2023/07/30 02:34:13;;;;;;;2.55;1.80;;;;;;;-145.69;85.93;52179.03;5098058;28;20619;-84
2023/07/30 02:36:40;;;;;;;4.95;2.10;;;;;;;-145.69;85.26;52192.88;5098055;28;20229;-84
2023/07/30 02:39:06;;;;;;;2.75;2.00;;;;;;;-145.69;85.21;52167.13;5106031;28;20198;-84
2023/07/30 02:41:33;;;;;;;2.63;2.13;;;;;;;-145.69;83.89;52167.13;5101162;28;20300;-84
2023/07/30 02:43:59;;;;;;;3.42;2.35;;;;;;;-145.69;84.48;52186.94;5106576;28;20266;-84
2023/07/30 02:46:26;;;;;;;2.95;2.00;;;;;;;-145.69;84.61;52143.38;5102205;28;20285;-85
2023/07/30 02:48:54;;;;;;;3.88;1.83;;;;;;;-145.69;85.52;52155.25;5102687;28;20201;-85
2023/07/30 02:51:20;;;;;;;3.83;2.00;;;;;;;-145.69;85.42;52163.19;5093738;28;20198;-85
2023/07/30 02:53:54;;;;;;;2.35;1.65;;;;;;;-145.69;83.20;52155.25;5103061;28;20201;-85
2023/07/30 02:56:21;;;;;;;3.63;1.83;;;;;;;-145.69;81.18;52153.28;5103972;28;20240;-85
2023/07/30 02:58:47;;;;;;;5.55;2.10;;;;;;;-145.69;80.74;52155.25;5098835;28;20210;-85
2023/07/30 03:01:14;;;;;;;3.35;1.80;;;;;;;-145.69;80.39;52159.22;5098696;28;20236;-85
2023/07/30 03:03:40;;;;;;;3.42;1.83;;;;;;;-145.69;80.48;52163.19;5098470;28;20198;-84
2023/07/30 03:06:09;;;;;;;6.30;2.33;;;;;;;-145.69;80.59;52151.28;5099426;28;20259;-85
2023/07/30 03:08:36;;;;;;;4.75;2.00;;;;;;;-145.69;81.12;52157.25;5105630;28;20202;-85
2023/07/30 03:11:03;;;;;;;4.57;2.10;;;;;;;-145.69;81.20;52143.38;5103845;28;20210;-85
2023/07/30 03:13:30;;;;;;;3.88;1.88;;;;;;;-145.69;81.63;52177.03;5098441;28;20204;-84
2023/07/30 03:15:56;;;;;;;4.50;2.38;;;;;;;-145.69;83.53;52137.44;5103526;28;20238;-85
2023/07/30 03:18:23;;;;;;;3.47;2.33;;;;;;;-145.69;82.50;52157.25;5107136;28;20208;-84
2023/07/30 03:20:51;;;;;;;3.67;2.10;;;;;;;-145.69;83.81;52103.78;5112953;28;20229;-84
2023/07/30 03:23:18;;;;;;;2.78;1.90;;;;;;;-145.69;84.65;52159.22;5111692;28;20285;-85
2023/07/30 03:25:45;;;;;;;2.78;2.10;;;;;;;-145.69;85.38;52177.03;5102879;28;20209;-85
2023/07/30 03:28:12;;;;;;;2.90;2.00;;;;;;;-145.69;85.14;52131.50;5103457;28;20209;-85
2023/07/30 03:30:38;;;;;;;8.60;2.35;;;;;;;-145.69;86.35;52175.06;5096389;28;20194;-85
2023/07/30 03:33:04;;;;;;;2.58;1.92;;;;;;;-145.69;85.75;52155.25;5097294;28;20198;-85
2023/07/30 03:35:33;;;;;;;2.83;2.20;;;;;;;-145.69;84.63;52151.28;5100883;28;20198;-85
2023/07/30 03:37:59;;;;;;;2.47;1.90;;;;;;;-145.69;84.37;52175.06;5100035;28;20691;-85
2023/07/30 03:40:27;;;;;;;4.10;2.45;;;;;;;-145.69;85.78;52179.03;5106693;28;20232;-85
2023/07/30 03:42:56;;;;;;;3.55;2.20;;;;;;;-145.69;85.18;52167.13;5100392;28;20667;-85
2023/07/30 03:45:23;;;;;;;3.83;2.10;;;;;;;-145.69;84.48;52141.41;5104573;28;20209;-85
2023/07/30 03:47:50;;;;;;;6.00;1.85;;;;;;;-145.69;85.14;52179.03;5098685;28;20202;-85
2023/07/30 03:50:16;;;;;;;2.75;2.00;;;;;;;-145.69;85.34;52186.94;5097144;28;20197;-85
2023/07/30 03:52:43;;;;;;;4.30;1.80;;;;;;;-145.69;85.54;52210.72;5098654;28;20286;-85
2023/07/30 03:55:09;;;;;;;5.20;1.77;;;;;;;-145.69;86.48;52194.88;5098743;28;20194;-85
2023/07/30 03:57:37;;;;;;;4.15;2.17;;;;;;;-145.69;86.69;52196.84;5099930;28;20208;-85
2023/07/30 04:00:05;;;;;;;3.97;1.60;;;;;;;-145.69;86.07;52151.28;5100205;28;20218;-84
2023/07/30 04:02:32;;;;;;;2.83;1.85;;;;;;;-145.69;86.29;52212.69;5096419;28;20289;-85
2023/07/30 04:04:58;;;;;;;2.85;1.88;;;;;;;-145.69;86.53;52173.09;5095149;28;20213;-85
2023/07/30 04:07:25;;;;;;;2.97;1.77;;;;;;;-145.69;86.76;52188.91;5096089;28;20194;-85
2023/07/30 04:09:51;;;;;;;4.63;1.98;;;;;;;-145.69;86.84;52167.13;5095735;28;20206;-85
2023/07/30 04:12:21;;;;;;;2.17;1.58;;;;;;;-145.69;88.49;52194.88;5111801;28;20205;-85
2023/07/30 04:14:49;;;;;;;8.77;2.40;;;;;;;-145.69;88.22;52196.84;5096391;28;20291;-85
2023/07/30 04:17:15;;;;;;;2.60;2.08;;;;;;;-145.69;87.14;52184.97;5097022;28;20202;-85
2023/07/30 04:19:42;;;;;;;2.95;1.90;;;;;;;-145.69;87.57;52208.72;5101651;28;20198;-85
2023/07/30 04:22:08;;;;;;;3.67;2.03;;;;;;;-145.69;88.26;52192.88;5102247;28;20198;-85
2023/07/30 04:24:35;;;;;;;3.75;2.00;;;;;;;-145.69;87.53;52169.13;5095797;28;20557;-84
2023/07/30 04:27:02;;;;;;;2.72;2.13;;;;;;;-145.69;87.97;52171.09;5095057;28;20202;-85
2023/07/30 04:29:29;;;;;;;2.45;1.85;;;;;;;-145.69;88.66;52181.00;5113339;28;20208;-84
2023/07/30 04:31:57;;;;;;;3.08;1.80;;;;;;;-145.69;88.29;52188.91;5105602;28;20228;-85
2023/07/30 04:34:24;;;;;;;4.57;2.33;;;;;;;-145.69;88.46;52198.81;5104146;28;20212;-85
2023/07/30 04:36:50;;;;;;;4.95;2.25;;;;;;;-145.69;87.41;52155.25;5096378;28;20198;-83
2023/07/30 04:39:17;;;;;;;3.47;2.15;;;;;;;-145.69;87.27;52186.94;5094527;28;20202;-84
2023/07/30 04:41:43;;;;;;;4.00;2.10;;;;;;;-145.69;87.99;52186.94;5096086;28;20226;-84
2023/07/30 04:44:10;;;;;;;5.18;1.98;;;;;;;-145.69;88.38;52192.88;5096663;28;20226;-84
2023/07/30 04:46:37;;;;;;;3.13;2.10;;;;;;;-145.69;88.23;52190.91;5094219;28;20387;-84
2023/07/30 04:49:05;;;;;;;5.65;2.03;;;;;;;-145.69;88.41;52218.63;5098705;28;20214;-84
2023/07/30 04:51:31;;;;;;;2.88;2.00;;;;;;;-145.69;87.87;52179.03;5104886;28;20208;-83
2023/07/30 04:53:58;;;;;;;3.75;2.05;;;;;;;-145.69;88.61;52163.19;5103113;28;20202;-84
2023/07/30 04:56:26;;;;;;;8.88;2.00;;;;;;;-145.69;88.27;52175.06;5095191;28;20201;-84
2023/07/30 04:58:52;;;;;;;5.75;2.55;;;;;;;-145.69;87.56;52175.06;5098145;28;20202;-84
2023/07/30 05:01:19;;;;;;;2.85;2.00;;;;;;;-145.69;88.55;52179.03;5098538;28;20232;-84
2023/07/30 05:03:45;;;;;;;4.68;2.33;;;;;;;-145.69;89.28;52186.94;5102774;28;20198;-84
2023/07/30 05:06:13;;;;;;;3.25;2.40;;;;;;;-145.69;89.08;52171.09;5093914;28;20205;-84
2023/07/30 05:08:40;;;;;;;2.63;1.88;;;;;;;-145.69;89.33;52190.91;5102593;28;20209;-84
2023/07/30 05:11:06;;;;;;;3.50;2.15;;;;;;;-145.69;89.29;52190.91;5098406;28;20202;-84
2023/07/30 05:13:33;;;;;;;3.15;2.03;;;;;;;-145.69;89.07;52147.34;5095529;28;20201;-84
2023/07/30 05:15:59;;;;;;;3.15;2.15;;;;;;;-145.69;89.30;52159.22;5092715;28;20588;-84
2023/07/30 05:18:26;;;;;;;3.17;2.17;;;;;;;-145.69;89.46;52165.16;5093357;28;20631;-83
2023/07/30 05:20:52;;;;;;;3.60;2.10;;;;;;;-145.69;89.19;52177.03;5100003;28;20234;-84
2023/07/30 05:23:20;;;;;;;4.72;2.40;;;;;;;-145.69;88.87;52119.63;5095007;28;20244;-84
2023/07/30 05:25:47;;;;;;;2.60;1.83;;;;;;;-145.69;89.13;52155.25;5097224;28;20661;-84
2023/07/30 05:28:14;;;;;;;3.78;2.10;;;;;;;-145.69;88.87;52190.91;5095440;28;20209;-84
2023/07/30 05:30:40;;;;;;;3.33;2.17;;;;;;;-145.69;88.95;52139.41;5097355;28;20205;-84
2023/07/30 05:33:07;;;;;;;3.17;2.00;;;;;;;-145.69;88.84;52169.13;5094830;28;20198;-83
2023/07/30 05:35:33;;;;;;;3.92;2.38;;;;;;;-145.69;85.67;52167.13;5095968;28;20683;-83
2023/07/30 05:38:00;;;;;;;5.78;2.05;;;;;;;-145.69;86.74;52190.91;5096701;28;20210;-84
2023/07/30 05:40:28;;;;;;;3.70;2.22;;;;;;;-145.69;86.75;52159.22;5095051;28;20225;-84
2023/07/30 05:42:54;;;;;;;3.05;1.80;;;;;;;-145.69;84.58;52155.25;5095946;28;20213;-83
2023/07/30 05:45:21;;;;;;;3.53;1.90;;;;;;;-145.69;82.87;52131.50;5094965;28;20229;-84
2023/07/30 05:47:47;;;;;;;2.72;2.03;;;;;;;-145.69;81.54;52123.56;5094033;28;20212;-83
2023/07/30 05:50:14;;;;;;;6.35;1.50;;;;;;;-145.69;77.38;52123.56;5096291;28;20198;-83
2023/07/30 05:52:40;;;;;;;2.40;1.63;;;;;;;-145.69;74.14;52115.66;5097395;28;20205;-84
2023/07/30 05:55:07;;;;;;;6.57;1.33;;;;;;;-145.69;73.12;52117.63;5094584;28;20202;-83
2023/07/30 05:57:35;;;;;;;8.13;1.23;;;;;;;-145.69;68.55;52101.78;5094210;28;20198;-81
2023/07/30 06:00:02;;;;;;;2.15;1.50;;;;;;;-145.69;68.59;52072.09;5093973;28;20208;-82
2023/07/30 06:02:28;;;;;;;2.40;1.40;;;;;;;-145.69;65.85;52074.06;5094877;28;20198;-84
2023/07/30 06:04:55;;;;;;;4.57;1.38;;;;;;;-145.69;65.39;52070.09;5093473;28;20202;-84
2023/07/30 06:07:21;;;;;;;3.20;1.25;;;;;;;-145.69;64.54;52068.13;5094871;28;20201;-82
2023/07/30 06:09:48;;;;;;;2.95;1.17;;;;;;;-145.69;62.75;52083.97;5094643;28;20553;-84
2023/07/30 06:12:15;;;;;;;1.67;1.10;;;;;;;-145.69;62.28;52074.06;5094724;28;20230;-84
2023/07/30 06:14:43;;;;;;;2.28;1.00;;;;;;;-145.69;60.39;52052.28;5093692;28;20230;-81
2023/07/30 06:17:09;;;;;;;1.77;0.95;;;;;;;-145.69;59.73;52072.09;5093252;28;20212;-84
2023/07/30 06:19:36;;;;;;;2.05;1.25;;;;;;;-145.69;60.36;52040.41;5095965;28;20213;-84
2023/07/30 06:22:02;;;;;;;2.10;1.20;;;;;;;-145.69;59.41;52066.16;5095215;28;20719;-85
2023/07/30 06:24:29;;;;;;;2.65;1.40;;;;;;;-145.69;57.27;52046.34;5093848;28;20206;-84
2023/07/30 06:26:55;;;;;;;1.80;1.10;;;;;;;-145.69;59.27;52046.34;5094924;28;20565;-84
2023/07/30 06:29:22;;;;;;;1.77;1.00;;;;;;;-145.69;58.03;52054.25;5099159;28;20206;-84
2023/07/30 06:31:50;;;;;;;3.10;1.00;;;;;;;-145.69;58.07;52056.25;5100537;28;20209;-84
2023/07/30 06:34:16;;;;;;;1.65;1.10;;;;;;;-145.69;56.22;52048.31;5097665;28;20198;-84
2023/07/30 06:36:43;;;;;;;2.28;1.10;;;;;;;-145.69;56.37;52048.31;5098506;28;20194;-84
2023/07/30 06:39:09;;;;;;;1.73;1.10;;;;;;;-145.69;54.96;51996.84;5098203;28;20561;-85
2023/07/30 06:41:36;;;;;;;1.15;0.90;;;;;;;-145.69;54.41;52044.38;5097556;28;20226;-81
2023/07/30 06:44:02;;;;;;;2.15;1.00;;;;;;;-145.69;53.78;52032.47;5097525;28;20204;-86
2023/07/30 06:46:29;;;;;;;1.40;1.10;;;;;;;-145.69;53.74;52024.56;5097990;28;20202;-84
2023/07/30 06:48:57;;;;;;;1.20;1.10;;;;;;;-145.69;54.51;52040.41;5098106;28;20221;-85
2023/07/30 06:51:25;;;;;;;2.20;1.30;;;;;;;-145.69;54.11;52050.31;5099127;28;20232;-84
2023/07/30 06:53:52;;;;;;;1.30;0.90;;;;;;;-145.69;54.47;52036.44;5098928;28;20205;-84
2023/07/30 06:56:18;;;;;;;1.98;1.13;;;;;;;-145.69;54.32;52050.31;5098487;28;20208;-85
2023/07/30 06:58:45;;;;;;;1.35;1.10;;;;;;;-145.69;54.89;52020.59;5098792;28;20218;-85
2023/07/30 07:01:11;;;;;;;4.13;1.25;;;;;;;-145.69;51.44;52034.47;5098650;28;20232;-85
2023/07/30 07:03:38;;;;;;;1.30;1.00;;;;;;;-145.69;50.90;52002.78;5098679;28;20198;-85
2023/07/30 07:06:06;;;;;;;1.58;0.98;;;;;;;-145.69;51.50;52016.66;5100866;28;20648;-85
2023/07/30 07:08:33;;;;;;;1.05;0.90;;;;;;;-145.69;52.36;52020.59;5097580;28;20676;-84
2023/07/30 07:10:59;;;;;;;3.85;1.25;;;;;;;-145.69;51.21;51977.03;5098722;28;20206;-85
2023/07/30 07:13:26;;;;;;;1.85;1.25;;;;;;;-145.69;50.70;52028.53;5099461;28;20198;-86
2023/07/30 07:15:52;;;;;;;3.00;1.20;;;;;;;-145.69;49.81;52008.72;5097204;28;20230;-86
2023/07/30 07:18:19;;;;;;;1.73;1.10;;;;;;;-145.69;49.25;52040.41;5096619;28;20198;-86
2023/07/30 07:20:45;;;;;;;1.08;0.98;;;;;;;-145.69;49.08;52002.78;5075768;28;20302;-86
2023/07/30 07:23:13;;;;;;;2.25;1.13;;;;;;;-145.69;47.88;51969.13;5081052;28;20206;-85
2023/07/30 07:25:40;;;;;;;1.85;1.00;;;;;;;-145.69;47.10;52002.78;5096432;28;20210;-85
2023/07/30 07:28:06;;;;;;;2.15;0.80;;;;;;;-145.69;47.32;51994.88;5096318;28;20296;-85
2023/07/30 07:30:35;;;;;;;2.60;1.30;;;;;;;-145.69;46.65;51959.22;5096711;28;20210;-87
2023/07/30 07:33:01;;;;;;;1.85;1.20;;;;;;;-145.69;46.54;51973.06;5096091;28;20206;-86
2023/07/30 07:35:28;;;;;;;1.52;1.10;;;;;;;-145.69;45.05;51994.88;5097123;28;20206;-86
2023/07/30 07:37:55;;;;;;;1.63;0.90;;;;;;;-145.69;45.33;51984.97;5096252;28;20233;-84
2023/07/30 07:40:22;;;;;;;1.17;0.98;;;;;;;-145.69;44.82;51967.13;5094984;28;20225;-83
2023/07/30 07:42:49;;;;;;;2.22;1.05;;;;;;;-145.69;44.29;51933.47;5096877;28;20225;-85
2023/07/30 07:45:15;;;;;;;3.63;1.20;;;;;;;-145.69;43.80;51969.13;5096921;28;20676;-83
2023/07/30 07:47:42;;;;;;;3.40;1.13;;;;;;;-145.69;42.05;51949.31;5096315;28;20206;-86
2023/07/30 07:50:09;;;;;;;2.33;1.00;;;;;;;-145.69;41.08;51961.19;5096034;28;20213;-87
2023/07/30 07:52:41;;;;;;;1.52;1.10;;;;;;;-145.69;40.15;51961.19;5094707;28;20214;-87
2023/07/30 07:55:08;;;;;;;0.88;0.70;;;;;;;-145.69;41.09;51937.44;5096167;28;20197;-87
2023/07/30 07:57:44;;;;;;;2.00;1.08;;;;;;;-145.69;41.07;51979.03;5095757;28;20205;-85
2023/07/30 08:00:14;;;;;;;1.02;0.93;;;;;;;-145.69;40.83;51939.41;5095619;28;20197;-85
2023/07/30 08:02:40;;;;;;;2.00;1.20;;;;;;;-145.69;41.48;51963.19;5095037;28;20225;-85
2023/07/30 08:05:08;;;;;;;1.20;1.10;;;;;;;-145.69;41.46;51947.34;5095137;28;20200;-81
2023/07/30 08:07:34;;;;;;;2.42;1.40;;;;;;;-145.69;41.50;51990.91;5095279;28;20628;-83
2023/07/30 08:10:01;;;;;;;1.83;1.05;;;;;;;-145.69;41.72;51971.09;5095443;28;20202;-85
2023/07/30 08:12:29;;;;;;;1.02;0.90;;;;;;;-145.69;41.46;51965.16;5083434;28;20202;-85
2023/07/30 08:14:59;;;;;;;1.63;1.00;;;;;;;-145.69;41.11;51959.22;5074489;28;20237;-84
2023/07/30 08:17:26;;;;;;;1.88;1.30;;;;;;;-145.69;41.34;51986.94;5074420;28;20205;-83
2023/07/30 08:19:55;;;;;;;2.45;1.10;;;;;;;-145.69;41.87;51945.34;5074468;28;20218;-84
2023/07/30 08:22:30;;;;;;;3.75;1.10;;;;;;;-145.69;40.21;51933.47;5074555;28;20226;-84
2023/07/30 08:24:57;;;;;;;4.18;1.10;;;;;;;-145.69;40.42;51905.75;5091688;28;20193;-85
2023/07/30 08:27:28;;;;;;;1.08;0.82;;;;;;;-145.69;39.08;51913.69;5094349;28;20285;-84
2023/07/30 08:29:55;;;;;;;1.23;0.90;;;;;;;-145.69;39.53;51933.47;5094999;28;20213;-85
2023/07/30 08:32:23;;;;;;;2.17;1.00;;;;;;;-145.69;39.44;51909.72;5094424;28;20285;-87
2023/07/30 08:34:49;;;;;;;2.55;0.93;;;;;;;-145.69;38.53;51935.47;5094556;28;20198;-88
2023/07/30 08:37:16;;;;;;;1.98;1.00;;;;;;;-145.69;38.36;51913.69;5094372;28;20576;-86
2023/07/30 08:39:44;;;;;;;2.00;1.30;;;;;;;-145.69;38.27;51933.47;5094526;28;20622;-82
2023/07/30 08:42:11;;;;;;;1.20;0.88;;;;;;;-145.69;38.63;51921.59;5094323;28;20222;-86
2023/07/30 08:44:41;;;;;;;3.72;0.98;;;;;;;-145.69;38.28;51919.63;5094231;28;20202;-85
2023/07/30 08:47:08;;;;;;;1.10;0.80;;;;;;;-145.69;37.31;51889.91;5094467;28;20202;-86
2023/07/30 08:49:38;;;;;;;1.02;0.80;;;;;;;-145.69;37.52;51885.94;5093545;28;20655;-86
2023/07/30 08:52:08;;;;;;;1.90;1.00;;;;;;;-145.69;37.09;51905.75;5093283;28;20198;-85
2023/07/30 08:54:36;;;;;;;2.05;1.08;;;;;;;-145.69;37.09;51937.44;5093872;28;20198;-84
2023/07/30 08:57:04;;;;;;;1.95;1.10;;;;;;;-145.69;36.47;51882.00;5094121;28;20206;-85
2023/07/30 08:59:34;;;;;;;3.00;1.13;;;;;;;-145.69;36.42;51872.09;5094049;28;20251;-86
2023/07/30 09:02:01;;;;;;;1.52;1.00;;;;;;;-145.69;37.10;51909.72;5094279;28;20221;-83
2023/07/30 09:04:30;;;;;;;1.88;1.10;;;;;;;-145.69;36.67;51880.00;5093894;28;20243;-84
2023/07/30 09:07:00;;;;;;;2.20;0.90;;;;;;;-145.69;36.73;51889.91;5094036;28;20199;-86
2023/07/30 09:09:27;;;;;;;2.38;1.13;;;;;;;-145.69;37.04;51913.69;5093722;28;20556;-87
2023/07/30 09:11:54;;;;;;;1.42;0.90;;;;;;;-145.69;37.24;51880.00;5093737;28;20534;-87
2023/07/30 09:14:23;;;;;;;1.30;0.70;;;;;;;-145.69;36.68;51862.19;5093331;28;20230;-83
2023/07/30 09:16:57;;;;;;;2.47;1.00;;;;;;;-145.69;37.54;51874.06;5094071;28;20704;-87
2023/07/30 09:19:24;;;;;;;1.50;1.10;;;;;;;-145.69;38.74;51901.78;5094422;28;20198;-84
2023/07/30 09:21:53;;;;;;;1.52;1.00;;;;;;;-145.69;39.73;51897.84;5093666;28;20232;-85
2023/07/30 09:24:23;;;;;;;4.33;1.10;;;;;;;-145.69;40.96;51885.94;5093065;28;20455;-89
2023/07/30 09:26:49;;;;;;;1.40;1.20;;;;;;;-145.69;41.03;51909.72;5093580;28;20206;-84
2023/07/30 09:29:19;;;;;;;1.95;1.10;;;;;;;-145.69;41.39;51903.78;5093773;28;20204;-83
2023/07/30 09:31:55;;;;;;;6.03;1.00;;;;;;;-145.69;40.35;51909.72;5093535;28;20218;-85
2023/07/30 09:34:23;;;;;;;1.98;1.10;;;;;;;-145.69;40.89;51961.19;5093605;28;20292;-83
2023/07/30 09:36:52;;;;;;;2.75;1.00;;;;;;;-145.69;41.15;51967.13;5093461;28;20205;-87
2023/07/30 09:39:26;;;;;;;1.88;0.90;;;;;;;-145.69;42.03;51943.38;5093512;28;20208;-87
2023/07/30 09:42:00;;;;;;;4.47;0.90;;;;;;;-145.69;43.48;51949.31;5093511;28;20256;-87
2023/07/30 09:44:26;;;;;;;1.48;1.05;;;;;;;-145.69;44.63;51996.84;5093683;28;20202;-85
2023/07/30 09:46:53;;;;;;;2.67;1.67;;;;;;;-145.69;46.10;51973.06;5093724;28;20536;-86
2023/07/30 09:49:20;;;;;;;1.65;1.00;;;;;;;-145.69;47.61;51996.84;5093651;28;20229;-87
2023/07/30 09:51:47;;;;;;;1.85;1.15;;;;;;;-145.69;46.94;52006.75;5093494;28;20208;-87
2023/07/30 09:54:15;;;;;;;2.03;1.02;;;;;;;-145.69;47.12;51992.88;5093230;28;20204;-87
2023/07/30 09:56:45;;;;;;;2.00;1.00;;;;;;;-145.69;47.03;51990.91;5093594;28;20204;-86
2023/07/30 09:59:15;;;;;;;1.88;0.90;;;;;;;-145.69;48.11;51990.91;5093300;28;20617;-86
2023/07/30 10:01:44;;;;;;;4.45;0.98;;;;;;;-145.69;48.73;52000.81;5090821;28;20222;-86
2023/07/30 10:04:12;;;;;;;4.22;1.30;;;;;;;-145.69;47.75;52016.66;5089687;28;20714;-85
2023/07/30 10:06:42;;;;;;;1.60;1.10;;;;;;;-145.69;47.88;51981.00;5093252;28;20201;-84
2023/07/30 10:09:13;;;;;;;4.78;1.00;;;;;;;-145.69;47.80;51975.06;5092226;28;20229;-83
2023/07/30 10:11:42;;;;;;;3.53;0.95;;;;;;;-145.69;49.20;52008.72;5093876;28;20284;-84
2023/07/30 10:14:11;;;;;;;1.23;1.13;;;;;;;-145.69;49.33;52020.59;5094056;28;20360;-85
2023/07/30 10:16:38;;;;;;;1.58;1.10;;;;;;;-145.69;48.54;52008.72;5092818;28;20668;-85
2023/07/30 10:19:04;;;;;;;1.90;1.20;;;;;;;-145.69;48.43;52048.31;5093185;28;20202;-85
2023/07/30 10:21:33;;;;;;;2.20;1.20;;;;;;;-145.69;48.79;51994.88;5093734;28;20196;-85
2023/07/30 10:24:01;;;;;;;2.20;1.20;;;;;;;-145.69;49.00;52026.53;5082639;28;20216;-87
2023/07/30 10:26:29;;;;;;;5.00;1.17;;;;;;;-145.69;49.59;52012.69;5093590;28;20202;-84
2023/07/30 10:29:12;;;;;;;2.00;1.10;;;;;;;-145.69;50.24;52056.25;5092951;28;20194;-86
2023/07/30 10:31:39;;;;;;;2.17;1.10;;;;;;;-145.69;52.10;52014.66;5092778;28;20206;-85
2023/07/30 10:34:09;;;;;;;1.70;1.08;;;;;;;-145.69;52.79;52036.44;5095665;28;20206;-83
2023/07/30 10:36:43;;;;;;;1.63;1.00;;;;;;;-145.69;51.83;52020.59;5098842;28;20205;-85
2023/07/30 10:39:14;;;;;;;2.35;1.20;;;;;;;-145.69;50.68;52024.56;5100752;28;20206;-85
2023/07/30 10:41:40;;;;;;;1.98;1.10;;;;;;;-145.69;49.15;52014.66;5098069;28;20225;-85
2023/07/30 10:44:07;;;;;;;2.17;1.17;;;;;;;-145.69;48.64;51996.84;5098132;28;20194;-86
2023/07/30 10:46:37;;;;;;;1.98;1.10;;;;;;;-145.69;46.94;52000.81;5095195;28;20284;-85
2023/07/30 10:49:06;;;;;;;2.72;1.15;;;;;;;-145.69;45.44;51994.88;5096661;28;20267;-85
2023/07/30 10:51:32;;;;;;;1.85;1.10;;;;;;;-145.69;44.91;51984.97;5096285;28;20198;-85
2023/07/30 10:54:01;;;;;;;1.77;1.10;;;;;;;-145.69;46.78;51994.88;5099567;28;20288;-85
2023/07/30 10:56:27;;;;;;;1.52;1.17;;;;;;;-145.69;45.89;51967.13;5096662;28;20208;-84
2023/07/30 10:58:55;;;;;;;1.67;1.20;;;;;;;-145.69;45.66;51959.22;5096528;28;20233;-84
2023/07/30 11:01:26;;;;;;;1.45;1.00;;;;;;;-145.69;44.09;51965.16;5095289;28;20281;-85
2023/07/30 11:03:54;;;;;;;1.35;1.00;;;;;;;-145.69;42.55;51915.66;5092800;28;20279;-84
2023/07/30 11:06:30;;;;;;;2.33;1.17;;;;;;;-145.69;40.42;51917.63;5094514;28;20202;-85
2023/07/30 11:08:56;;;;;;;2.78;1.17;;;;;;;-145.69;40.37;51907.72;5094014;28;20202;-83
2023/07/30 11:11:25;;;;;;;1.25;0.90;;;;;;;-145.69;39.45;51927.53;5092775;28;20293;-84
2023/07/30 11:13:58;;;;;;;1.98;1.17;;;;;;;-145.69;39.54;51925.56;5092805;28;20210;-87
2023/07/30 11:16:30;;;;;;;1.52;1.08;;;;;;;-145.69;38.90;51927.53;5096713;28;20198;-85
2023/07/30 11:19:00;;;;;;;2.05;1.23;;;;;;;-145.69;38.65;51951.28;5096516;28;20673;-84